Time;durP1;ratioP1;P1;durP2;ratioP2;P2;SDS_P1;SDS_P2;PMS_P1;PMS_P2;Temp;Humidity;BMP_temperature;BMP_pressure;BME280_temperature;BME280_humidity;BME280_pressure;Samples;Min_cycle;Max_cycle;Signal;HPM_P1;HPM_P2
2021/01/08 00:01:26;;;;;;;66.67;36.40;;;-2.00;99.90;;;;;;5075141;28;20217;-88
2021/01/08 00:03:52;;;;;;;93.17;40.43;;;-1.90;99.90;;;;;;5075972;28;20213;-88
2021/01/08 00:06:30;;;;;;;85.33;40.60;;;-1.70;99.90;;;;;;5075044;28;20220;-87
2021/01/08 00:09:03;;;;;;;80.87;37.50;;;-1.70;99.90;;;;;;5050474;28;20203;-88
2021/01/08 00:11:34;;;;;;;78.17;36.70;;;-1.80;99.90;;;;;;5055337;28;20197;-88
2021/01/08 00:14:02;;;;;;;76.83;36.60;;;-1.90;99.90;;;;;;5063252;28;20249;-88
2021/01/08 00:19:18;;;;;;;76.17;35.70;;;-1.90;99.90;;;;;;5380680;23;20315;-83
2021/01/08 00:21:45;;;;;;;74.40;35.03;;;-2.00;99.90;;;;;;5071728;28;20214;-83
2021/01/08 00:24:18;;;;;;;87.87;36.87;;;-2.00;99.90;;;;;;5069697;28;20195;-83
2021/01/08 00:26:47;;;;;;;79.27;34.13;;;-2.00;99.90;;;;;;5072042;28;20195;-83
2021/01/08 00:29:15;;;;;;;79.50;36.30;;;-2.10;99.90;;;;;;5055226;28;20199;-83
2021/01/08 00:31:43;;;;;;;96.73;37.60;;;-2.10;99.90;;;;;;5054529;28;20223;-83
2021/01/08 00:34:10;;;;;;;147.17;39.37;;;-2.20;99.90;;;;;;5062351;28;20205;-83
2021/01/08 00:36:37;;;;;;;100.93;39.63;;;-2.20;99.90;;;;;;5031806;28;20228;-83
2021/01/08 00:39:05;;;;;;;142.30;46.97;;;-2.10;99.90;;;;;;5032161;28;20228;-83
2021/01/08 00:41:34;;;;;;;185.30;47.20;;;-2.20;99.90;;;;;;5032369;28;20216;-83
2021/01/08 00:44:00;;;;;;;350.73;71.77;;;-2.30;99.90;;;;;;5031832;28;20777;-83
2021/01/08 00:46:32;;;;;;;236.40;51.20;;;-2.40;99.90;;;;;;5032022;28;20234;-83
2021/01/08 00:48:58;;;;;;;199.10;49.40;;;-2.40;99.90;;;;;;5050360;28;20215;-83
2021/01/08 00:51:25;;;;;;;120.57;40.47;;;-2.50;99.90;;;;;;5053441;28;20223;-83
2021/01/08 00:53:51;;;;;;;203.23;42.67;;;-2.50;99.90;;;;;;5067987;28;20652;-83
2021/01/08 00:56:19;;;;;;;144.37;36.00;;;-2.50;99.90;;;;;;5071754;28;20265;-83
2021/01/08 00:58:46;;;;;;;90.77;32.47;;;-2.60;99.90;;;;;;5058570;28;20602;-82
2021/01/08 01:01:12;;;;;;;111.60;32.17;;;-2.70;99.90;;;;;;5064950;28;20231;-83
2021/01/08 01:03:39;;;;;;;132.70;33.90;;;-2.70;99.90;;;;;;5057116;28;20222;-83
2021/01/08 01:06:05;;;;;;;87.93;32.70;;;-2.80;99.90;;;;;;5071650;28;20196;-83
2021/01/08 01:08:32;;;;;;;155.80;67.97;;;-2.70;99.90;;;;;;5071414;28;20610;-83
2021/01/08 01:10:59;;;;;;;117.40;39.80;;;-2.80;99.90;;;;;;5071767;28;20207;-83
2021/01/08 01:13:27;;;;;;;118.00;39.10;;;-2.80;99.90;;;;;;5071127;28;20234;-83
2021/01/08 01:15:53;;;;;;;154.70;43.53;;;-2.80;99.90;;;;;;5071219;28;20232;-84
2021/01/08 01:18:20;;;;;;;99.97;38.20;;;-2.80;99.90;;;;;;5071222;28;20689;-83
2021/01/08 01:20:48;;;;;;;81.03;35.87;;;-2.90;99.90;;;;;;5031857;28;740289;-83
2021/01/08 01:23:15;;;;;;;95.87;36.70;;;-2.80;99.90;;;;;;5053960;28;20206;-83
2021/01/08 01:25:42;;;;;;;86.20;37.40;;;-2.90;99.90;;;;;;5055826;28;20246;-83
2021/01/08 01:28:08;;;;;;;91.30;46.07;;;-3.00;99.90;;;;;;5056030;28;20625;-83
2021/01/08 01:30:36;;;;;;;75.27;36.47;;;-3.10;99.90;;;;;;5056013;28;20231;-83
2021/01/08 01:33:03;;;;;;;70.23;35.50;;;-3.10;99.90;;;;;;5055911;28;20192;-83
2021/01/08 01:35:31;;;;;;;96.67;37.60;;;-3.10;99.90;;;;;;5056253;28;20232;-83
2021/01/08 01:37:57;;;;;;;76.47;32.40;;;-3.20;99.90;;;;;;5055957;28;20746;-82
2021/01/08 01:40:24;;;;;;;86.60;33.43;;;-3.30;99.90;;;;;;5056176;28;20219;-83
2021/01/08 01:42:51;;;;;;;77.23;35.03;;;-3.40;99.90;;;;;;5055839;28;20203;-83
2021/01/08 01:45:18;;;;;;;93.27;34.60;;;-3.40;99.90;;;;;;5043058;28;20247;-83
2021/01/08 01:47:45;;;;;;;121.33;38.57;;;-3.40;99.90;;;;;;5075360;28;20288;-82
2021/01/08 01:50:15;;;;;;;70.37;33.23;;;-3.40;99.90;;;;;;5075669;28;20565;-83
2021/01/08 01:52:42;;;;;;;89.03;35.03;;;-3.40;99.90;;;;;;5075456;28;20210;-83
2021/01/08 01:55:09;;;;;;;75.47;32.60;;;-3.50;99.90;;;;;;5075207;28;20268;-82
2021/01/08 01:57:35;;;;;;;74.57;33.47;;;-3.50;99.90;;;;;;5075369;28;20226;-83
2021/01/08 02:00:03;;;;;;;79.40;35.17;;;-3.50;99.90;;;;;;5075165;28;20555;-83
2021/01/08 02:02:43;;;;;;;65.47;33.43;;;-3.50;99.90;;;;;;5075016;28;20206;-83
2021/01/08 02:05:14;;;;;;;73.90;35.20;;;-3.60;99.90;;;;;;5075276;28;20234;-82
2021/01/08 02:07:47;;;;;;;67.17;33.20;;;-3.60;99.90;;;;;;5075356;28;20187;-83
2021/01/08 02:10:15;;;;;;;84.67;32.67;;;-3.60;99.90;;;;;;5064625;28;20210;-82
2021/01/08 02:12:45;;;;;;;70.97;32.17;;;-3.70;99.90;;;;;;5067603;28;20235;-82
2021/01/08 02:15:13;;;;;;;81.13;30.90;;;-3.70;99.90;;;;;;5075055;28;20268;-83
2021/01/08 02:17:40;;;;;;;75.33;32.13;;;-3.70;99.90;;;;;;5075485;28;20635;-82
2021/01/08 02:20:09;;;;;;;77.50;33.77;;;-3.70;99.90;;;;;;5074572;28;20261;-82
2021/01/08 02:22:46;;;;;;;76.37;31.67;;;-3.60;99.90;;;;;;5075644;28;20548;-82
2021/01/08 02:25:16;;;;;;;82.03;32.43;;;-3.70;99.90;;;;;;5074552;28;20205;-82
2021/01/08 02:27:52;;;;;;;73.67;31.67;;;-3.70;99.90;;;;;;5066480;28;20321;-83
2021/01/08 02:30:19;;;;;;;100.10;39.37;;;-3.60;99.90;;;;;;5055179;28;20565;-83
2021/01/08 02:32:45;;;;;;;117.63;47.20;;;-3.70;99.90;;;;;;5055197;28;20229;-83
2021/01/08 02:35:12;;;;;;;124.17;52.50;;;-3.70;99.90;;;;;;5054430;28;20250;-82
2021/01/08 02:37:42;;;;;;;105.40;43.77;;;-3.70;99.90;;;;;;5058291;28;20628;-82
2021/01/08 02:40:11;;;;;;;91.03;36.40;;;-3.70;99.90;;;;;;5074926;28;20229;-82
2021/01/08 02:42:40;;;;;;;83.10;32.80;;;-3.70;99.90;;;;;;5075048;28;20672;-82
2021/01/08 02:45:08;;;;;;;107.93;35.20;;;-3.70;99.90;;;;;;5074617;28;20204;-83
2021/01/08 02:47:34;;;;;;;145.33;43.43;;;-3.80;99.90;;;;;;5069318;28;20226;-82
2021/01/08 02:50:00;;;;;;;102.93;35.43;;;-3.70;99.90;;;;;;5054305;28;20671;-82
2021/01/08 02:52:28;;;;;;;127.17;43.90;;;-3.60;99.90;;;;;;5054451;28;20198;-82
2021/01/08 02:54:56;;;;;;;97.73;34.30;;;-3.60;99.90;;;;;;5057120;28;20685;-82
2021/01/08 02:57:23;;;;;;;84.60;31.80;;;-3.60;99.90;;;;;;5074423;28;20206;-82
2021/01/08 02:59:51;;;;;;;75.47;31.67;;;-3.60;99.90;;;;;;5056678;28;20672;-82
2021/01/08 03:02:17;;;;;;;98.40;33.37;;;-3.60;99.90;;;;;;5054087;28;20201;-83
2021/01/08 03:04:44;;;;;;;91.17;33.50;;;-3.60;99.90;;;;;;5064014;28;20547;-83
2021/01/08 03:07:11;;;;;;;91.87;34.80;;;-3.50;99.90;;;;;;5074189;28;20241;-82
2021/01/08 03:09:37;;;;;;;139.30;49.23;;;-3.50;99.90;;;;;;5071272;28;20196;-83
2021/01/08 03:12:04;;;;;;;115.40;35.70;;;-3.40;99.90;;;;;;5053914;28;20247;-83
2021/01/08 03:14:31;;;;;;;137.73;38.07;;;-3.40;99.90;;;;;;5068472;28;20202;-82
2021/01/08 03:16:58;;;;;;;178.20;36.50;;;-3.40;99.90;;;;;;5053979;28;20261;-82
2021/01/08 03:19:25;;;;;;;94.87;34.67;;;-3.30;99.90;;;;;;5058945;28;20254;-82
2021/01/08 03:21:52;;;;;;;126.13;43.47;;;-3.40;99.90;;;;;;5053943;28;20199;-82
2021/01/08 03:24:18;;;;;;;118.10;37.93;;;-3.30;99.90;;;;;;5060346;28;20202;-83
2021/01/08 03:26:45;;;;;;;98.03;33.57;;;-3.30;99.90;;;;;;5055177;28;20197;-82
2021/01/08 03:29:11;;;;;;;147.33;35.67;;;-3.20;99.90;;;;;;5073800;28;20214;-82
2021/01/08 03:31:37;;;;;;;174.37;40.40;;;-3.30;99.90;;;;;;5070762;28;20245;-83
2021/01/08 03:34:05;;;;;;;156.77;37.83;;;-3.30;99.90;;;;;;5053674;28;20222;-82
2021/01/08 03:36:31;;;;;;;152.77;39.33;;;-3.30;99.90;;;;;;5062363;28;20253;-82
2021/01/08 03:38:58;;;;;;;156.97;35.80;;;-3.30;99.90;;;;;;5054376;28;20276;-82
2021/01/08 03:41:26;;;;;;;114.47;35.37;;;-3.30;99.90;;;;;;5070602;28;20709;-82
2021/01/08 03:43:52;;;;;;;129.53;36.70;;;-3.30;99.90;;;;;;5073435;28;20199;-83
2021/01/08 03:46:19;;;;;;;123.87;37.00;;;-3.20;99.90;;;;;;5073126;28;20248;-82
2021/01/08 03:48:46;;;;;;;173.20;39.47;;;-3.20;99.90;;;;;;5073660;28;20201;-83
2021/01/08 03:51:13;;;;;;;174.97;37.43;;;-3.20;99.90;;;;;;5073442;28;20198;-82
2021/01/08 03:53:40;;;;;;;127.07;38.50;;;-3.20;99.90;;;;;;5073547;28;20201;-82
2021/01/08 03:56:06;;;;;;;141.20;37.00;;;-3.10;99.90;;;;;;5072874;28;20226;-83
2021/01/08 03:58:33;;;;;;;100.47;35.10;;;-3.20;99.90;;;;;;5073278;28;20209;-82
2021/01/08 04:01:00;;;;;;;102.53;36.37;;;-3.20;99.90;;;;;;5057378;28;20235;-82
2021/01/08 04:03:26;;;;;;;103.53;36.10;;;-3.10;99.90;;;;;;5053064;28;20195;-82
2021/01/08 04:05:52;;;;;;;106.97;36.00;;;-3.10;99.90;;;;;;5058639;28;20619;-83
2021/01/08 04:08:20;;;;;;;114.17;37.47;;;-3.00;99.90;;;;;;5053035;28;20198;-83
2021/01/08 04:10:46;;;;;;;93.57;34.50;;;-3.10;99.90;;;;;;5071064;28;20291;-82
2021/01/08 04:13:13;;;;;;;111.70;37.53;;;-3.10;99.90;;;;;;5073019;28;20268;-82
2021/01/08 04:15:39;;;;;;;111.87;35.87;;;-3.10;99.90;;;;;;5072796;28;20678;-82
2021/01/08 04:18:06;;;;;;;106.53;36.40;;;-3.00;99.90;;;;;;5072870;28;20673;-82
2021/01/08 04:20:32;;;;;;;97.77;35.53;;;-3.00;99.90;;;;;;5072472;28;20231;-82
2021/01/08 04:22:59;;;;;;;118.33;41.93;;;-3.00;99.90;;;;;;5072840;28;20210;-82
2021/01/08 04:25:26;;;;;;;111.60;36.53;;;-3.00;99.90;;;;;;5072750;28;20228;-82
2021/01/08 04:27:52;;;;;;;97.30;36.27;;;-2.90;99.90;;;;;;5072894;28;20232;-82
2021/01/08 04:30:23;;;;;;;119.10;37.83;;;-3.00;99.90;;;;;;5072946;28;20216;-83
2021/01/08 04:32:49;;;;;;;106.30;34.97;;;-3.00;99.90;;;;;;5069825;28;20306;-82
2021/01/08 04:35:16;;;;;;;105.70;34.57;;;-2.90;99.90;;;;;;5059928;28;20790;-83
2021/01/08 04:37:42;;;;;;;99.83;35.93;;;-3.00;99.90;;;;;;5072590;28;20242;-82
2021/01/08 04:40:09;;;;;;;103.50;36.70;;;-3.00;99.90;;;;;;5072531;28;20231;-82
2021/01/08 04:42:37;;;;;;;105.57;35.93;;;-2.90;99.90;;;;;;5072648;28;20206;-82
2021/01/08 04:45:04;;;;;;;95.30;36.63;;;-2.90;99.90;;;;;;5072974;28;20206;-82
2021/01/08 04:47:32;;;;;;;120.47;36.77;;;-2.90;99.90;;;;;;5072909;28;20234;-82
2021/01/08 04:49:58;;;;;;;113.13;35.67;;;-2.90;99.90;;;;;;5072557;28;20205;-82
2021/01/08 04:52:27;;;;;;;113.53;37.53;;;-3.00;99.90;;;;;;5072560;28;20252;-82
2021/01/08 04:54:53;;;;;;;91.27;35.17;;;-3.00;99.90;;;;;;5071394;28;20198;-83
2021/01/08 04:57:22;;;;;;;81.47;35.47;;;-3.00;99.90;;;;;;5057932;28;20559;-82
2021/01/08 04:59:54;;;;;;;111.70;38.00;;;-2.90;99.90;;;;;;5076871;28;20226;-82
2021/01/08 05:02:21;;;;;;;83.53;33.17;;;-2.90;99.90;;;;;;5060800;28;20277;-82
2021/01/08 05:04:48;;;;;;;82.97;33.77;;;-2.90;99.90;;;;;;5056440;28;20226;-82
2021/01/08 05:07:14;;;;;;;78.43;34.47;;;-3.00;99.90;;;;;;5056469;28;20245;-82
2021/01/08 05:09:40;;;;;;;85.30;33.40;;;-3.00;99.90;;;;;;5056241;28;20239;-82
2021/01/08 05:12:07;;;;;;;118.80;34.93;;;-2.90;99.90;;;;;;5056330;28;20305;-82
2021/01/08 05:14:34;;;;;;;77.23;31.87;;;-2.90;99.90;;;;;;5056471;28;20217;-82
2021/01/08 05:17:03;;;;;;;103.07;34.20;;;-2.90;99.90;;;;;;5056045;28;20314;-82
2021/01/08 05:19:30;;;;;;;127.60;38.57;;;-2.90;99.90;;;;;;5069064;28;20297;-82
2021/01/08 05:21:56;;;;;;;116.67;33.57;;;-2.90;99.90;;;;;;5055866;28;20213;-82
2021/01/08 05:24:24;;;;;;;90.40;32.57;;;-2.90;99.90;;;;;;5056167;28;20231;-83
2021/01/08 05:26:50;;;;;;;83.37;32.80;;;-2.80;99.90;;;;;;5036077;28;20218;-82
2021/01/08 05:29:28;;;;;;;85.47;34.17;;;-2.80;99.90;;;;;;5044533;28;20230;-82
2021/01/08 05:31:55;;;;;;;99.77;34.07;;;-2.90;99.90;;;;;;5067478;28;20240;-82
2021/01/08 05:34:28;;;;;;;96.60;33.43;;;-2.90;99.90;;;;;;5055955;28;20237;-82
2021/01/08 05:36:57;;;;;;;106.57;35.93;;;-2.90;99.90;;;;;;5055847;28;20219;-82
2021/01/08 05:39:23;;;;;;;91.20;33.30;;;-2.90;99.90;;;;;;5055774;28;20199;-82
2021/01/08 05:41:50;;;;;;;91.30;33.83;;;-2.80;99.90;;;;;;5055936;28;20211;-83
2021/01/08 05:44:17;;;;;;;151.13;36.20;;;-2.80;99.90;;;;;;5055969;28;20289;-82
2021/01/08 05:46:46;;;;;;;121.80;33.87;;;-2.90;99.90;;;;;;5055905;28;20199;-82
2021/01/08 05:49:13;;;;;;;104.73;35.07;;;-3.00;99.90;;;;;;5055890;28;20673;-82
2021/01/08 05:51:40;;;;;;;90.20;32.73;;;-3.00;99.90;;;;;;5055234;28;20256;-81
2021/01/08 05:54:07;;;;;;;86.87;34.03;;;-3.00;99.90;;;;;;5055015;28;20565;-82
2021/01/08 05:56:34;;;;;;;88.23;34.00;;;-3.00;99.90;;;;;;5055184;28;20325;-82
2021/01/08 05:59:04;;;;;;;89.47;33.60;;;-2.90;99.90;;;;;;5066923;28;20230;-82
2021/01/08 06:01:31;;;;;;;90.73;34.27;;;-2.90;99.90;;;;;;5063840;28;20671;-82
2021/01/08 06:03:59;;;;;;;96.93;34.30;;;-2.80;99.90;;;;;;5068002;28;20285;-82
2021/01/08 06:06:25;;;;;;;106.50;35.20;;;-2.90;99.90;;;;;;5062927;28;20202;-82
2021/01/08 06:08:55;;;;;;;97.63;32.67;;;-2.90;99.90;;;;;;5054208;28;20245;-82
2021/01/08 06:11:26;;;;;;;86.13;33.27;;;-2.90;99.90;;;;;;5055118;28;20202;-82
2021/01/08 06:13:55;;;;;;;72.13;33.87;;;-2.90;99.90;;;;;;5055094;28;20192;-83
2021/01/08 06:16:22;;;;;;;87.87;34.00;;;-2.80;99.90;;;;;;5054802;28;20214;-83
2021/01/08 06:18:50;;;;;;;102.13;33.97;;;-2.80;99.90;;;;;;5068511;28;20231;-82
2021/01/08 06:21:17;;;;;;;130.83;35.70;;;-2.80;99.90;;;;;;5055572;28;20200;-83
2021/01/08 06:23:45;;;;;;;90.93;35.47;;;-2.90;99.90;;;;;;5059704;28;20257;-81
2021/01/08 06:26:14;;;;;;;110.00;35.73;;;-2.90;99.90;;;;;;5072271;28;20199;-83
2021/01/08 06:28:42;;;;;;;82.37;33.63;;;-2.90;99.90;;;;;;5074878;28;20276;-82
2021/01/08 06:31:26;;;;;;;80.07;35.37;;;-2.80;99.90;;;;;;5069344;28;20289;-80
2021/01/08 06:33:55;;;;;;;96.60;34.50;;;-2.70;99.90;;;;;;5072643;28;20191;-80
2021/01/08 06:36:22;;;;;;;93.53;34.93;;;-2.70;99.90;;;;;;5068102;28;20269;-80
2021/01/08 06:38:54;;;;;;;74.47;33.87;;;-2.70;99.90;;;;;;5064682;28;20234;-81
2021/01/08 06:41:22;;;;;;;77.93;36.83;;;-2.70;99.90;;;;;;5058225;28;20306;-82
2021/01/08 06:43:51;;;;;;;99.63;34.90;;;-2.50;99.90;;;;;;5072888;28;20730;-79
2021/01/08 06:46:35;;;;;;;80.37;33.97;;;-2.50;99.90;;;;;;5062790;28;20227;-79
2021/01/08 06:49:04;;;;;;;85.80;34.60;;;-2.50;99.90;;;;;;5065268;28;20199;-78
2021/01/08 06:51:34;;;;;;;109.13;36.30;;;-2.50;99.90;;;;;;5050620;28;20207;-78
2021/01/08 06:54:05;;;;;;;94.13;35.97;;;-2.50;99.90;;;;;;5067734;28;20270;-78
2021/01/08 06:56:36;;;;;;;96.53;36.27;;;-2.50;99.90;;;;;;5053898;28;20268;-79
2021/01/08 06:59:04;;;;;;;104.33;36.00;;;-2.50;99.90;;;;;;5054415;28;20231;-79
2021/01/08 07:01:53;;;;;;;123.17;35.23;;;-2.50;99.90;;;;;;5054479;28;20211;-79
2021/01/08 07:04:21;;;;;;;85.03;32.90;;;-2.50;99.90;;;;;;5053809;28;20697;-79
2021/01/08 07:06:48;;;;;;;138.93;36.50;;;-2.40;99.90;;;;;;5053645;28;20235;-79
2021/01/08 07:09:15;;;;;;;112.27;34.53;;;-2.40;99.90;;;;;;5069537;28;20235;-78
2021/01/08 07:11:42;;;;;;;107.07;34.53;;;-2.50;99.90;;;;;;5074107;28;20623;-79
2021/01/08 07:14:12;;;;;;;138.90;36.47;;;-2.50;99.90;;;;;;5057696;28;20231;-79
2021/01/08 07:16:46;;;;;;;94.10;36.70;;;-2.60;99.90;;;;;;5038337;28;20731;-79
2021/01/08 07:19:14;;;;;;;157.60;36.07;;;-2.50;99.90;;;;;;5073281;28;20282;-79
2021/01/08 07:21:45;;;;;;;132.93;36.07;;;-2.50;99.90;;;;;;5072472;28;20241;-79
2021/01/08 07:24:13;;;;;;;77.37;35.10;;;-2.50;99.90;;;;;;5071588;28;20230;-79
2021/01/08 07:26:40;;;;;;;88.13;37.47;;;-2.50;99.90;;;;;;5062726;28;20237;-79
2021/01/08 07:29:08;;;;;;;89.10;37.03;;;-2.50;99.90;;;;;;5053683;28;20686;-80
2021/01/08 07:31:37;;;;;;;77.60;37.53;;;-2.40;99.90;;;;;;5066457;28;20685;-79
2021/01/08 07:34:05;;;;;;;89.30;37.23;;;-2.40;99.90;;;;;;5065494;28;20203;-79
2021/01/08 07:36:32;;;;;;;101.90;38.93;;;-2.50;99.90;;;;;;5066454;28;20605;-80
2021/01/08 07:38:59;;;;;;;80.30;38.53;;;-2.50;99.90;;;;;;5073237;28;20709;-80
2021/01/08 07:41:39;;;;;;;83.67;35.37;;;-2.50;99.90;;;;;;5068541;28;20230;-79
2021/01/08 07:44:31;;;;;;;83.17;35.53;;;-2.60;99.90;;;;;;5073191;28;20559;-79
2021/01/08 07:47:18;;;;;;;98.87;35.83;;;-2.60;99.90;;;;;;5059595;28;20610;-80
2021/01/08 07:49:44;;;;;;;86.47;35.10;;;-2.60;99.90;;;;;;5071516;28;20234;-80
2021/01/08 07:52:11;;;;;;;80.07;35.37;;;-2.70;99.90;;;;;;5062396;28;20231;-80
2021/01/08 07:54:55;;;;;;;102.77;33.37;;;-2.60;99.90;;;;;;5071724;28;20199;-80
2021/01/08 07:57:21;;;;;;;103.77;36.53;;;-2.70;99.90;;;;;;5068050;28;20255;-80
2021/01/08 07:59:49;;;;;;;122.90;37.50;;;-2.80;99.90;;;;;;5062216;28;20237;-80
2021/01/08 08:02:15;;;;;;;76.10;35.63;;;-2.80;99.90;;;;;;5073074;28;20234;-80
2021/01/08 08:04:44;;;;;;;95.13;34.80;;;-2.70;99.90;;;;;;5072546;28;20244;-80
2021/01/08 08:07:12;;;;;;;85.53;34.80;;;-2.70;99.90;;;;;;5073127;28;20241;-80
2021/01/08 08:09:42;;;;;;;100.67;38.27;;;-2.60;99.90;;;;;;5066627;28;20208;-80
2021/01/08 08:12:12;;;;;;;154.33;59.80;;;-2.50;99.90;;;;;;5066419;28;20192;-79
2021/01/08 08:14:38;;;;;;;105.80;48.30;;;-2.50;99.90;;;;;;5052549;28;20226;-80
2021/01/08 08:17:06;;;;;;;100.87;42.93;;;-2.40;99.90;;;;;;5071576;28;20265;-80
2021/01/08 08:19:33;;;;;;;108.60;51.30;;;-2.30;99.90;;;;;;5059713;28;20318;-80
2021/01/08 08:22:00;;;;;;;97.43;40.30;;;-2.30;99.90;;;;;;5052214;28;20203;-79
2021/01/08 08:24:28;;;;;;;96.00;39.53;;;-2.20;99.90;;;;;;5052542;28;20196;-79
2021/01/08 08:26:54;;;;;;;408.97;177.40;;;-2.10;99.90;;;;;;5070543;28;20225;-80
2021/01/08 08:29:22;;;;;;;110.60;46.53;;;-2.20;99.90;;;;;;5072779;28;20301;-79
2021/01/08 08:31:51;;;;;;;122.37;36.13;;;-2.30;99.90;;;;;;5063724;28;20206;-79
2021/01/08 08:34:29;;;;;;;109.27;39.63;;;-2.30;99.90;;;;;;5072077;28;20201;-80
2021/01/08 08:37:05;;;;;;;104.00;36.43;;;-2.20;99.90;;;;;;5071288;28;20233;-79
2021/01/08 08:39:32;;;;;;;96.30;39.17;;;-2.10;99.90;;;;;;5067812;28;20195;-80
2021/01/08 08:41:58;;;;;;;136.93;38.27;;;-2.10;99.90;;;;;;5069906;28;20230;-80
2021/01/08 08:44:25;;;;;;;129.90;42.47;;;-2.00;99.90;;;;;;5072020;28;20772;-80
2021/01/08 08:46:53;;;;;;;110.17;38.70;;;-2.00;99.90;;;;;;5071654;28;20358;-79
2021/01/08 08:49:24;;;;;;;137.30;37.37;;;-1.90;99.90;;;;;;5071361;28;20564;-78
2021/01/08 08:51:52;;;;;;;131.13;36.97;;;-2.00;99.90;;;;;;5071679;28;20211;-79
2021/01/08 08:54:19;;;;;;;90.30;34.53;;;-2.00;99.90;;;;;;5070996;28;20280;-78
2021/01/08 08:56:51;;;;;;;85.47;35.23;;;-1.90;99.90;;;;;;5051849;28;20742;-79
2021/01/08 08:59:35;;;;;;;116.87;36.63;;;-1.80;99.90;;;;;;5052763;28;20257;-79
2021/01/08 09:02:01;;;;;;;143.40;36.47;;;-1.80;99.90;;;;;;5071616;28;20231;-78
2021/01/08 09:04:28;;;;;;;92.07;33.57;;;-1.90;99.90;;;;;;5065644;28;20292;-78
2021/01/08 09:07:00;;;;;;;106.83;35.40;;;-1.90;99.90;;;;;;5066001;28;20227;-79
2021/01/08 09:09:29;;;;;;;135.40;35.40;;;-1.80;99.90;;;;;;5072158;28;20658;-79
2021/01/08 09:12:17;;;;;;;115.00;38.20;;;-1.70;99.90;;;;;;5070001;28;20671;-79
2021/01/08 09:14:48;;;;;;;86.00;37.57;;;-1.80;99.90;;;;;;5035866;28;20212;-79
2021/01/08 09:17:20;;;;;;;99.70;32.80;;;-1.70;99.90;;;;;;5031658;28;20282;-78
2021/01/08 09:19:53;;;;;;;124.40;38.37;;;-1.80;99.90;;;;;;5046576;28;20281;-79
2021/01/08 09:22:20;;;;;;;104.50;36.53;;;-1.70;99.90;;;;;;5056447;28;20635;-79
2021/01/08 09:24:49;;;;;;;116.83;35.50;;;-1.60;99.90;;;;;;5065939;28;20282;-78
2021/01/08 09:27:17;;;;;;;112.47;34.60;;;-1.60;99.90;;;;;;5051593;28;20691;-78
2021/01/08 09:29:43;;;;;;;151.43;37.17;;;-1.60;99.90;;;;;;5059737;28;20253;-81
2021/01/08 09:32:11;;;;;;;117.83;36.27;;;-1.60;99.90;;;;;;5071742;28;20268;-78
2021/01/08 09:34:37;;;;;;;114.13;36.40;;;-1.50;99.90;;;;;;5071732;28;20671;-81
2021/01/08 09:37:16;;;;;;;159.10;42.33;;;-1.40;99.90;;;;;;5072041;28;20657;-78
2021/01/08 09:39:43;;;;;;;127.03;48.97;;;-1.30;99.90;;;;;;5071012;28;20228;-78
2021/01/08 09:42:11;;;;;;;222.70;40.00;;;-1.40;99.90;;;;;;5067761;28;20204;-78
2021/01/08 09:44:39;;;;;;;320.27;41.50;;;-1.30;99.90;;;;;;5054025;28;20231;-80
2021/01/08 09:47:07;;;;;;;109.20;35.30;;;-1.20;99.90;;;;;;5055878;28;20228;-81
2021/01/08 09:49:41;;;;;;;173.30;38.17;;;-1.20;99.90;;;;;;5069171;28;20228;-80
2021/01/08 09:52:09;;;;;;;139.67;39.07;;;-1.10;99.90;;;;;;5063228;28;20283;-80
2021/01/08 09:54:44;;;;;;;112.43;38.70;;;-1.00;99.90;;;;;;5055147;28;20594;-81
2021/01/08 09:57:11;;;;;;;97.23;36.20;;;-1.00;99.90;;;;;;5055054;28;20319;-80
2021/01/08 09:59:38;;;;;;;122.67;35.53;;;-0.90;99.90;;;;;;5066729;28;20286;-80
2021/01/08 10:02:08;;;;;;;162.03;36.07;;;-0.90;99.90;;;;;;5063792;28;20233;-80
2021/01/08 10:04:36;;;;;;;98.13;32.83;;;-0.70;99.90;;;;;;5055471;28;20236;-80
2021/01/08 10:07:04;;;;;;;98.90;33.47;;;-0.60;99.90;;;;;;5056571;28;20232;-80
2021/01/08 10:09:51;;;;;;;85.80;33.47;;;-0.50;99.90;;;;;;5074846;28;20246;-80
2021/01/08 10:12:18;;;;;;;136.13;41.00;;;-0.50;99.90;;;;;;5069795;28;20215;-80
2021/01/08 10:14:45;;;;;;;197.80;52.60;;;-0.40;99.90;;;;;;5072924;28;20226;-80
2021/01/08 10:17:13;;;;;;;156.83;40.10;;;-0.40;99.90;;;;;;5074927;28;20650;-80
2021/01/08 10:19:41;;;;;;;150.07;38.80;;;-0.30;99.90;;;;;;5072160;28;20264;-80
2021/01/08 10:22:07;;;;;;;524.90;54.07;;;-0.30;99.90;;;;;;5062046;28;20240;-80
2021/01/08 10:24:34;;;;;;;279.80;40.00;;;-0.20;99.90;;;;;;5070544;28;20284;-81
2021/01/08 10:27:02;;;;;;;145.20;34.73;;;-0.10;99.90;;;;;;5060345;28;20234;-81
2021/01/08 10:29:33;;;;;;;202.33;38.43;;;0.00;99.90;;;;;;5069780;28;20680;-80
2021/01/08 10:32:05;;;;;;;139.67;47.63;;;-0.10;99.90;;;;;;5072461;28;20245;-80
2021/01/08 10:34:36;;;;;;;184.53;41.20;;;0.00;99.90;;;;;;5074193;28;20232;-80
2021/01/08 10:37:02;;;;;;;188.30;39.00;;;-0.10;99.90;;;;;;5074633;28;20259;-81
2021/01/08 10:39:29;;;;;;;181.90;37.83;;;0.00;99.90;;;;;;5054827;28;20236;-81
2021/01/08 10:41:55;;;;;;;120.77;34.67;;;0.10;99.90;;;;;;5054161;28;20294;-80
2021/01/08 10:44:22;;;;;;;108.37;37.27;;;0.30;99.90;;;;;;5054332;28;20249;-81
2021/01/08 10:46:49;;;;;;;262.77;40.53;;;0.30;99.90;;;;;;5054009;28;20233;-80
2021/01/08 10:49:15;;;;;;;367.57;40.13;;;0.40;99.90;;;;;;5064972;28;20230;-81
2021/01/08 10:51:41;;;;;;;139.00;32.47;;;0.40;99.90;;;;;;5074246;28;20299;-80
2021/01/08 10:54:15;;;;;;;81.60;32.93;;;0.50;99.90;;;;;;5074446;28;20236;-81
2021/01/08 10:56:41;;;;;;;115.60;33.53;;;0.80;99.90;;;;;;5064902;28;20237;-81
2021/01/08 10:59:08;;;;;;;93.60;32.93;;;1.20;99.90;;;;;;5074060;28;20699;-81
2021/01/08 11:01:42;;;;;;;183.90;37.83;;;1.10;99.90;;;;;;5070799;28;20697;-81
2021/01/08 11:04:09;;;;;;;127.80;47.27;;;1.20;99.90;;;;;;5053784;28;20235;-81
2021/01/08 11:06:36;;;;;;;74.67;31.67;;;1.20;99.90;;;;;;5053762;28;20268;-81
2021/01/08 11:09:03;;;;;;;93.73;33.77;;;1.30;99.90;;;;;;5058809;28;20234;-81
2021/01/08 11:11:29;;;;;;;75.47;31.50;;;1.50;99.90;;;;;;5073977;28;20305;-81
2021/01/08 11:13:56;;;;;;;72.80;31.83;;;1.70;99.90;;;;;;5073540;28;20243;-81
2021/01/08 11:16:22;;;;;;;83.00;48.77;;;2.10;99.90;;;;;;5072159;28;20257;-81
2021/01/08 11:18:49;;;;;;;75.20;36.43;;;1.80;99.90;;;;;;5055692;28;20247;-80
2021/01/08 11:21:19;;;;;;;49.43;29.07;;;2.20;99.90;;;;;;5069552;28;20235;-81
2021/01/08 11:23:46;;;;;;;70.27;32.70;;;1.70;99.90;;;;;;5070267;28;20278;-81
2021/01/08 11:26:13;;;;;;;56.67;31.93;;;1.70;99.90;;;;;;5070357;28;20240;-81
2021/01/08 11:28:39;;;;;;;59.27;33.27;;;2.20;99.90;;;;;;5065035;28;20255;-79
2021/01/08 11:31:06;;;;;;;97.83;35.03;;;2.70;99.90;;;;;;5073086;28;20264;-79
2021/01/08 11:33:32;;;;;;;69.10;33.10;;;2.80;99.90;;;;;;5073497;28;20289;-80
2021/01/08 11:35:59;;;;;;;57.57;32.10;;;3.00;99.90;;;;;;5073120;28;20256;-79
2021/01/08 11:38:26;;;;;;;76.60;32.93;;;2.70;99.90;;;;;;5054681;28;20232;-81
2021/01/08 11:40:53;;;;;;;82.43;38.87;;;2.40;99.90;;;;;;5071555;28;20233;-81
2021/01/08 11:43:19;;;;;;;59.77;35.30;;;2.90;99.90;;;;;;5066478;28;20233;-80
2021/01/08 11:45:46;;;;;;;62.77;34.73;;;3.10;99.90;;;;;;5069015;28;20280;-81
2021/01/08 11:48:12;;;;;;;66.67;34.40;;;3.20;99.90;;;;;;5073034;28;20814;-81
2021/01/08 11:50:39;;;;;;;54.60;33.27;;;3.00;99.90;;;;;;5062375;28;20236;-81
2021/01/08 11:53:06;;;;;;;57.37;33.10;;;3.00;99.90;;;;;;5072672;28;20700;-79
2021/01/08 11:55:33;;;;;;;51.70;30.77;;;3.20;99.90;;;;;;5072885;28;20688;-81
2021/01/08 11:57:59;;;;;;;49.77;31.63;;;3.30;99.90;;;;;;5057883;28;20261;-80
2021/01/08 12:00:26;;;;;;;52.60;32.53;;;3.60;99.90;;;;;;5053092;28;20226;-80
2021/01/08 12:02:52;;;;;;;50.97;30.90;;;4.50;99.90;;;;;;5052775;28;20234;-79
2021/01/08 12:05:19;;;;;;;52.93;30.40;;;4.20;99.90;;;;;;5053022;28;20241;-79
2021/01/08 12:07:45;;;;;;;48.63;30.00;;;4.30;99.90;;;;;;5052298;28;20234;-79
2021/01/08 12:10:13;;;;;;;49.63;30.60;;;4.20;99.90;;;;;;5052714;28;20274;-79
2021/01/08 12:12:40;;;;;;;48.73;30.77;;;4.30;99.90;;;;;;5067289;28;20234;-77
2021/01/08 12:15:07;;;;;;;45.13;28.43;;;4.60;99.90;;;;;;5071405;28;20206;-78
2021/01/08 12:17:34;;;;;;;41.73;25.03;;;4.80;99.90;;;;;;5061862;28;20655;-81
2021/01/08 12:20:05;;;;;;;38.80;25.17;;;4.50;99.90;;;;;;5063823;28;20270;-79
2021/01/08 12:22:33;;;;;;;42.53;26.53;;;4.40;99.90;;;;;;5059415;28;20242;-79
2021/01/08 12:24:59;;;;;;;40.77;26.23;;;4.70;99.90;;;;;;5054832;28;20587;-79
2021/01/08 12:27:27;;;;;;;41.60;27.07;;;4.80;99.90;;;;;;5072507;28;20234;-79
2021/01/08 12:29:57;;;;;;;42.27;26.33;;;5.20;99.90;;;;;;5055113;28;20196;-80
2021/01/08 12:32:26;;;;;;;36.37;24.57;;;6.10;99.90;;;;;;5062748;28;20229;-80